Etusivu
METAR-TAF:

METAR-TAF

Lentoasemat :

Sevillan lentoasema

Sevilla, Espanja

Leveyspiiri: 37-25N, Pituuspiiri: 005-54W, korkeus merenpinnasta: 34 m

Tämänhetkinen sää

Tämä raportti tehtiin 49 minuuttia sitten, kello 00.00 UTC
Tuuli 5 kn etelästä, vaihdellen etelän/kaakon ja lounaan välillä
Lämpötila 26°C
Kosteus 51%
Ilmanpaine 1014 hPa
Näkyvyys 10 km tai enemmän
ei pilviä alle 1500 m:ssä eikä cumulonimbus-pilviä

METAR: LEZL 200000Z 19005KT 150V220 CAVOK 26/15 Q1014 NOSIG

Aika: 02:49 (00:49 UTC)

Sääennuste

Tämä raportti tehtiin 4 tuntia ja 49 minuuttia sitten, kello 20.00 UTC
Ennuste voimassa 19. päivästä klo 21 UTC - 20. päivään klo 21 UTC
Tuuli 8 kn lounaasta
Näkyvyys 10 km tai enemmän
ei pilviä alle 1500 m:ssä eikä cumulonimbus-pilviä

TAF: LEZL 192000Z 1921/2021 23008KT CAVOK TX39/2015Z TN21/2006Z

Säähavainnot ja -ennusteet yli 4000 lentoasemalta (METAR- ja TAF-raportit).

Käytössä olevat sääasemat on merkitty karttaan keltaisilla ja punaisilla pisteillä.

Aseta hiiri pisteen päälle nähdäksesi sääaseman nimen.

Klikkaa sitten nähdäksesi säähavainnot ja -ennusteet.

Kartan vaihtaminen: klikkaa mustalla rastilla varustettuja vihreitä pisteitä, niin voit zoomata sisään; viivalla varustettua vihreää pistettä, niin voit zoomata ulos tai vihreitä nuolia, niin pääset viereisille kartoille.


METAR-TAF: